Time;durP1;ratioP1;P1;durP2;ratioP2;P2;SDS_P1;SDS_P2;PMS_P1;PMS_P2;Temp;Humidity;BMP_temperature;BMP_pressure;BME280_temperature;BME280_humidity;BME280_pressure;Samples;Min_cycle;Max_cycle;Signal;HPM_P1;HPM_P2
2022/08/09 00:01:47;;;;;;;5.22;3.38;;;15.60;89.70;;;;;;5071619;28;20033;-65
2022/08/09 00:04:14;;;;;;;6.97;3.30;;;15.50;90.20;;;;;;5068043;28;20075;-66
2022/08/09 00:06:39;;;;;;;7.25;3.55;;;15.40;90.50;;;;;;5069651;28;20118;-66
2022/08/09 00:09:08;;;;;;;5.55;3.42;;;15.40;90.70;;;;;;5071786;28;20044;-66
2022/08/09 00:11:35;;;;;;;5.43;3.38;;;15.40;90.80;;;;;;5072190;28;20016;-66
2022/08/09 00:14:01;;;;;;;5.75;3.20;;;15.30;91.00;;;;;;5069937;28;20310;-65
2022/08/09 00:16:28;;;;;;;5.57;3.30;;;15.40;90.80;;;;;;5073566;28;20044;-67
2022/08/09 00:18:54;;;;;;;6.38;2.97;;;15.60;90.60;;;;;;5071869;28;20017;-66
2022/08/09 00:21:20;;;;;;;4.68;3.05;;;15.80;90.00;;;;;;5067310;28;20037;-66
2022/08/09 00:23:47;;;;;;;5.15;3.13;;;16.10;89.10;;;;;;5069633;28;20025;-66
2022/08/09 00:26:12;;;;;;;6.22;3.15;;;16.40;88.00;;;;;;5068915;28;20117;-66
2022/08/09 00:28:41;;;;;;;5.80;2.80;;;16.50;87.40;;;;;;5071314;28;20071;-66
2022/08/09 00:31:08;;;;;;;6.35;3.30;;;16.50;87.40;;;;;;5057540;28;20036;-65
2022/08/09 00:33:38;;;;;;;5.03;3.20;;;16.60;87.10;;;;;;5064455;28;20021;-64
2022/08/09 00:36:04;;;;;;;5.68;3.20;;;16.60;87.20;;;;;;5063398;28;20430;-64
2022/08/09 00:38:30;;;;;;;5.13;3.30;;;16.80;86.80;;;;;;5071340;28;20037;-65
2022/08/09 00:40:56;;;;;;;6.05;3.20;;;16.90;86.10;;;;;;5073744;28;20035;-65
2022/08/09 00:43:22;;;;;;;6.07;3.25;;;17.00;85.60;;;;;;5070746;28;20367;-65
2022/08/09 00:45:48;;;;;;;7.93;3.13;;;17.20;85.30;;;;;;5072231;28;20024;-65
2022/08/09 00:48:14;;;;;;;6.22;2.92;;;17.20;84.90;;;;;;5068458;28;20036;-65
2022/08/09 00:50:40;;;;;;;5.60;3.00;;;17.30;84.70;;;;;;5066993;28;20029;-65
2022/08/09 00:53:06;;;;;;;6.18;3.40;;;17.40;84.50;;;;;;5065500;28;20047;-65
2022/08/09 00:55:32;;;;;;;6.30;3.47;;;17.40;84.40;;;;;;5071982;28;20024;-64
2022/08/09 00:57:58;;;;;;;5.28;2.80;;;17.40;84.30;;;;;;5074070;28;20032;-65
2022/08/09 01:00:24;;;;;;;6.63;3.08;;;17.40;84.30;;;;;;5070406;28;20031;-65
2022/08/09 01:03:18;;;;;;;6.28;3.60;;;17.30;84.70;;;;;;5058893;28;20112;-65
2022/08/09 01:06:11;;;;;;;5.05;3.08;;;17.30;84.90;;;;;;5070232;28;20294;-64
2022/08/09 01:08:51;;;;;;;5.85;3.08;;;17.30;84.60;;;;;;5061556;28;20476;-64
2022/08/09 01:11:49;;;;;;;5.28;3.20;;;17.40;84.40;;;;;;5071609;28;20032;-64
2022/08/09 01:14:34;;;;;;;4.72;3.33;;;17.50;83.90;;;;;;5063666;28;20037;-66
2022/08/09 01:17:18;;;;;;;5.50;2.95;;;17.50;83.80;;;;;;5072409;28;20110;-64
2022/08/09 01:19:53;;;;;;;8.30;2.95;;;17.50;83.80;;;;;;5064470;28;20028;-65
2022/08/09 01:22:33;;;;;;;5.60;3.63;;;17.50;83.90;;;;;;5071263;28;20031;-65
2022/08/09 01:25:23;;;;;;;5.72;3.25;;;17.50;83.70;;;;;;5067023;28;20383;-67
2022/08/09 01:27:53;;;;;;;7.25;3.35;;;17.70;83.50;;;;;;5071638;28;20035;-65
2022/08/09 01:30:22;;;;;;;6.97;3.20;;;17.70;83.10;;;;;;5069573;28;20107;-64
2022/08/09 01:32:50;;;;;;;6.00;3.13;;;17.70;83.00;;;;;;5065347;28;20020;-66
2022/08/09 01:35:28;;;;;;;6.55;3.20;;;17.80;82.80;;;;;;5068727;28;20116;-66
2022/08/09 01:38:02;;;;;;;7.40;3.30;;;17.80;82.70;;;;;;5072815;28;20067;-66
2022/08/09 01:40:28;;;;;;;5.18;3.10;;;17.80;82.60;;;;;;5069996;28;20136;-64
2022/08/09 01:42:55;;;;;;;5.18;3.22;;;17.90;82.30;;;;;;5077666;28;20074;-64
2022/08/09 01:45:23;;;;;;;4.95;2.92;;;17.80;82.60;;;;;;5074725;28;20032;-65
2022/08/09 01:47:50;;;;;;;4.60;2.83;;;17.70;82.80;;;;;;5076739;28;20029;-65
2022/08/09 01:50:17;;;;;;;5.72;3.10;;;17.60;83.00;;;;;;5072988;28;20436;-66
2022/08/09 01:52:43;;;;;;;8.02;3.00;;;17.60;83.40;;;;;;5075340;28;20028;-66
2022/08/09 01:55:09;;;;;;;4.95;3.10;;;17.60;83.30;;;;;;5068567;28;20032;-67
2022/08/09 01:57:49;;;;;;;6.57;3.15;;;17.40;83.40;;;;;;5071843;28;20119;-66
2022/08/09 02:00:15;;;;;;;4.75;3.10;;;17.40;83.60;;;;;;5073087;28;20032;-66
2022/08/09 02:02:48;;;;;;;6.68;3.00;;;17.40;83.80;;;;;;5074508;28;20067;-66
2022/08/09 02:05:16;;;;;;;7.05;3.10;;;17.30;84.20;;;;;;5069054;28;20027;-65
2022/08/09 02:08:03;;;;;;;5.45;2.88;;;17.20;84.80;;;;;;5073942;28;20036;-65
2022/08/09 02:10:32;;;;;;;5.82;3.05;;;17.00;85.20;;;;;;5071324;28;20364;-64
2022/08/09 02:13:02;;;;;;;4.32;2.88;;;16.90;85.50;;;;;;5076028;28;20052;-65
2022/08/09 02:15:29;;;;;;;7.97;3.00;;;16.90;85.30;;;;;;5076277;28;20090;-65
2022/08/09 02:17:55;;;;;;;6.05;3.28;;;16.80;85.60;;;;;;5072947;28;20452;-66
2022/08/09 02:20:34;;;;;;;5.70;3.50;;;16.90;85.50;;;;;;5072511;28;20029;-67
2022/08/09 02:23:25;;;;;;;6.05;3.50;;;17.00;85.20;;;;;;5075490;28;20024;-66
2022/08/09 02:25:56;;;;;;;7.00;3.60;;;17.10;84.90;;;;;;5072199;28;20363;-66
2022/08/09 02:28:34;;;;;;;5.00;2.95;;;17.20;84.60;;;;;;5069379;28;20111;-66
2022/08/09 02:31:05;;;;;;;6.22;3.10;;;16.90;85.20;;;;;;5058919;28;20021;-66
2022/08/09 02:33:39;;;;;;;6.63;3.67;;;16.60;86.60;;;;;;5074725;28;20310;-66
2022/08/09 02:36:09;;;;;;;5.60;3.40;;;16.20;87.90;;;;;;5074132;28;20027;-66
2022/08/09 02:38:44;;;;;;;5.80;3.70;;;15.80;88.90;;;;;;5073053;28;20332;-66
2022/08/09 02:41:13;;;;;;;5.07;3.35;;;15.60;89.50;;;;;;5075170;28;20028;-65
2022/08/09 02:43:41;;;;;;;5.35;3.13;;;15.40;89.60;;;;;;5075245;28;20115;-65
2022/08/09 02:46:11;;;;;;;6.05;3.70;;;15.30;89.80;;;;;;5070345;28;20027;-67
2022/08/09 02:48:38;;;;;;;5.45;3.72;;;15.10;90.20;;;;;;5073419;28;20020;-67
2022/08/09 02:51:07;;;;;;;5.43;3.70;;;15.00;90.50;;;;;;5077878;28;20375;-67
2022/08/09 02:53:44;;;;;;;7.38;3.60;;;15.00;90.60;;;;;;5071112;28;20017;-65
2022/08/09 02:56:12;;;;;;;6.18;4.07;;;14.90;90.50;;;;;;5074029;28;20028;-67
2022/08/09 02:58:40;;;;;;;8.05;4.18;;;14.70;91.20;;;;;;5074107;28;20104;-66
2022/08/09 03:01:07;;;;;;;7.72;4.93;;;14.60;92.20;;;;;;5074913;28;20027;-66
2022/08/09 03:03:35;;;;;;;5.20;3.67;;;14.50;92.90;;;;;;5083176;28;20024;-66
2022/08/09 03:06:04;;;;;;;7.10;4.10;;;14.30;93.30;;;;;;5073888;28;20017;-66
2022/08/09 03:08:31;;;;;;;6.75;4.13;;;14.20;94.10;;;;;;5073075;28;20044;-66
2022/08/09 03:10:58;;;;;;;6.50;4.50;;;14.00;94.60;;;;;;5078354;28;20029;-66
2022/08/09 03:13:28;;;;;;;4.93;3.92;;;14.00;94.80;;;;;;5073565;28;20452;-67
2022/08/09 03:15:55;;;;;;;7.20;4.60;;;13.90;94.90;;;;;;5074579;28;20368;-65
2022/08/09 03:18:21;;;;;;;5.90;4.25;;;13.80;95.00;;;;;;5074866;28;20107;-66
2022/08/09 03:20:49;;;;;;;6.00;4.68;;;13.70;95.40;;;;;;5089113;28;20099;-66
2022/08/09 03:23:18;;;;;;;5.25;4.25;;;13.70;95.50;;;;;;5078178;28;20028;-66
2022/08/09 03:25:48;;;;;;;6.22;5.00;;;13.60;95.70;;;;;;5072905;28;20036;-66
2022/08/09 03:28:14;;;;;;;8.98;4.85;;;13.60;95.90;;;;;;5074201;28;20033;-66
2022/08/09 03:30:41;;;;;;;6.53;4.32;;;13.60;95.90;;;;;;5070189;28;20064;-66
2022/08/09 03:33:08;;;;;;;6.35;4.75;;;13.60;95.90;;;;;;5057704;28;20051;-66
2022/08/09 03:35:34;;;;;;;5.63;4.60;;;13.70;95.90;;;;;;5072439;28;20101;-66
2022/08/09 03:38:01;;;;;;;6.57;4.18;;;13.70;95.90;;;;;;5069385;28;20433;-66
2022/08/09 03:40:26;;;;;;;6.25;4.80;;;13.60;95.90;;;;;;5072045;28;20063;-66
2022/08/09 03:42:52;;;;;;;6.13;4.07;;;13.50;95.90;;;;;;5075961;28;20048;-65
2022/08/09 03:45:18;;;;;;;7.22;4.82;;;13.50;96.00;;;;;;5073176;28;20028;-65
2022/08/09 03:47:43;;;;;;;5.90;4.25;;;13.40;96.20;;;;;;5068501;28;20078;-66
2022/08/09 03:50:11;;;;;;;7.35;4.85;;;13.40;96.20;;;;;;5069325;28;20047;-66
2022/08/09 03:52:39;;;;;;;7.00;4.70;;;13.30;96.30;;;;;;5073111;28;20021;-65
2022/08/09 03:55:07;;;;;;;6.72;5.10;;;13.20;96.40;;;;;;5073941;28;20028;-66
2022/08/09 03:57:32;;;;;;;7.18;4.78;;;13.10;96.50;;;;;;5068397;28;20029;-66
2022/08/09 03:59:58;;;;;;;5.30;4.45;;;13.00;96.50;;;;;;5075116;28;20028;-66
2022/08/09 04:02:26;;;;;;;7.07;4.90;;;13.00;96.70;;;;;;5067726;28;20037;-67
2022/08/09 04:04:52;;;;;;;6.50;4.65;;;12.90;96.50;;;;;;5077237;28;20352;-66
2022/08/09 04:07:17;;;;;;;7.05;5.00;;;12.90;96.70;;;;;;5066828;28;20028;-67
2022/08/09 04:09:43;;;;;;;7.28;4.80;;;12.90;96.70;;;;;;5072327;28;20051;-67
2022/08/09 04:12:08;;;;;;;5.93;4.60;;;12.90;96.70;;;;;;5079642;28;20020;-67
2022/08/09 04:14:35;;;;;;;5.80;4.75;;;12.90;96.70;;;;;;5072834;28;20036;-66
2022/08/09 04:17:01;;;;;;;6.07;4.72;;;12.90;96.90;;;;;;5069580;28;20499;-67
2022/08/09 04:19:27;;;;;;;6.63;5.28;;;12.90;96.70;;;;;;5067982;28;20028;-66
2022/08/09 04:21:52;;;;;;;7.05;5.00;;;13.00;96.70;;;;;;5069547;28;20032;-67
2022/08/09 04:24:18;;;;;;;7.55;5.00;;;13.00;97.00;;;;;;5070365;28;20027;-66
2022/08/09 04:26:47;;;;;;;8.70;4.75;;;13.00;96.90;;;;;;5069559;28;20016;-66
2022/08/09 04:29:13;;;;;;;6.15;4.78;;;13.00;96.90;;;;;;5075037;28;20059;-66
2022/08/09 04:31:38;;;;;;;8.35;4.55;;;13.00;97.00;;;;;;5077508;28;20482;-67
2022/08/09 04:34:04;;;;;;;8.65;4.70;;;13.10;96.80;;;;;;5074852;28;20092;-65
2022/08/09 04:36:31;;;;;;;9.30;4.68;;;13.10;96.70;;;;;;5067631;28;20033;-66
2022/08/09 04:39:02;;;;;;;7.30;5.45;;;13.10;96.80;;;;;;5069952;28;20025;-67
2022/08/09 04:41:29;;;;;;;7.43;4.60;;;13.10;96.80;;;;;;5071557;28;20111;-67
2022/08/09 04:43:55;;;;;;;7.18;5.18;;;13.10;96.90;;;;;;5070477;28;20025;-67
2022/08/09 04:46:21;;;;;;;5.72;4.43;;;13.10;97.00;;;;;;5063294;28;20029;-66
2022/08/09 04:48:47;;;;;;;7.45;4.85;;;13.00;97.00;;;;;;5062590;28;20029;-67
2022/08/09 04:51:13;;;;;;;5.28;4.35;;;13.10;97.00;;;;;;5067100;28;20052;-66
2022/08/09 04:53:41;;;;;;;6.68;4.75;;;13.00;97.00;;;;;;5066968;28;20469;-66
2022/08/09 04:56:07;;;;;;;6.40;4.60;;;13.00;97.10;;;;;;5066974;28;20028;-66
2022/08/09 04:58:33;;;;;;;6.47;4.72;;;13.10;97.10;;;;;;5069670;28;21663;-66
2022/08/09 05:01:00;;;;;;;5.65;4.53;;;13.20;96.90;;;;;;5065685;28;20052;-66
2022/08/09 05:03:26;;;;;;;6.75;4.78;;;13.30;97.00;;;;;;5063232;28;20031;-67
2022/08/09 05:05:52;;;;;;;5.38;4.47;;;13.30;96.90;;;;;;5064394;28;20028;-66
2022/08/09 05:08:18;;;;;;;6.85;4.93;;;13.30;97.10;;;;;;5064365;28;20045;-66
2022/08/09 05:10:44;;;;;;;5.97;4.70;;;13.40;97.00;;;;;;5069620;28;20047;-66
2022/08/09 05:13:10;;;;;;;9.20;4.82;;;13.40;97.00;;;;;;5071348;28;20039;-66
2022/08/09 05:15:39;;;;;;;6.97;3.92;;;13.40;97.00;;;;;;5065706;28;20036;-66
2022/08/09 05:18:04;;;;;;;9.52;4.90;;;13.70;97.10;;;;;;5066415;28;20036;-65
2022/08/09 05:20:30;;;;;;;5.65;3.80;;;13.90;96.80;;;;;;5077403;28;20371;-65
2022/08/09 05:22:59;;;;;;;5.38;3.50;;;14.30;96.20;;;;;;5072503;28;20032;-65
2022/08/09 05:25:25;;;;;;;6.30;3.60;;;14.60;95.60;;;;;;5066421;28;20028;-65
2022/08/09 05:27:51;;;;;;;5.95;3.45;;;14.80;95.10;;;;;;5075361;28;20105;-66
2022/08/09 05:30:17;;;;;;;4.82;3.30;;;14.90;94.10;;;;;;5074390;28;20025;-67
2022/08/09 05:32:46;;;;;;;5.20;3.70;;;15.30;92.80;;;;;;5067187;28;20032;-66
2022/08/09 05:35:11;;;;;;;6.68;3.85;;;15.50;92.80;;;;;;5072190;28;20392;-67
2022/08/09 05:37:38;;;;;;;6.40;3.88;;;15.50;92.60;;;;;;5066280;28;20140;-66
2022/08/09 05:40:05;;;;;;;6.32;4.10;;;15.50;92.60;;;;;;5068878;28;20035;-66
2022/08/09 05:42:34;;;;;;;5.72;3.75;;;15.60;92.60;;;;;;5072480;28;20033;-66
2022/08/09 05:45:00;;;;;;;6.57;3.85;;;15.70;92.60;;;;;;5074248;28;20031;-67
2022/08/09 05:47:28;;;;;;;7.20;3.40;;;15.80;92.80;;;;;;5075596;28;20028;-66
2022/08/09 05:49:56;;;;;;;6.55;3.80;;;15.90;92.40;;;;;;5071628;28;20020;-66
2022/08/09 05:52:22;;;;;;;6.63;3.28;;;16.10;91.90;;;;;;5072807;28;20059;-66
2022/08/09 05:54:48;;;;;;;4.90;3.47;;;16.20;91.40;;;;;;5070603;28;20506;-66
2022/08/09 05:57:14;;;;;;;6.97;3.70;;;16.40;91.10;;;;;;5071145;28;20032;-66
2022/08/09 05:59:40;;;;;;;6.63;3.53;;;16.50;91.00;;;;;;5074876;28;20123;-66
2022/08/09 06:02:05;;;;;;;6.80;4.15;;;16.60;90.90;;;;;;5068457;28;20036;-66
2022/08/09 06:04:31;;;;;;;6.25;3.20;;;16.80;90.60;;;;;;5075643;28;20115;-64
2022/08/09 06:06:57;;;;;;;6.22;3.60;;;16.90;90.50;;;;;;5077719;28;20020;-66
2022/08/09 06:09:22;;;;;;;5.60;3.08;;;17.00;89.30;;;;;;5061583;28;20041;-65
2022/08/09 06:11:48;;;;;;;6.35;3.08;;;17.10;88.70;;;;;;5063408;28;20082;-65
2022/08/09 06:14:16;;;;;;;6.43;3.00;;;17.20;88.80;;;;;;5062445;28;20031;-65
2022/08/09 06:16:42;;;;;;;6.72;3.17;;;17.40;88.50;;;;;;5066101;28;20032;-65
2022/08/09 06:19:08;;;;;;;5.88;3.47;;;17.60;87.70;;;;;;5062488;28;20694;-66
2022/08/09 06:21:34;;;;;;;8.27;3.67;;;17.70;87.00;;;;;;5063937;28;20025;-66
2022/08/09 06:23:59;;;;;;;8.88;3.80;;;17.80;86.70;;;;;;5061492;28;20096;-66
2022/08/09 06:26:26;;;;;;;5.80;3.30;;;17.90;86.60;;;;;;5061421;28;20119;-65
2022/08/09 06:28:53;;;;;;;6.45;2.97;;;18.10;86.30;;;;;;5063111;28;20031;-66
2022/08/09 06:31:19;;;;;;;7.82;3.10;;;18.20;85.70;;;;;;5058717;28;20078;-65
2022/08/09 06:33:45;;;;;;;5.47;2.78;;;18.30;84.90;;;;;;5063276;28;20033;-65
2022/08/09 06:36:11;;;;;;;4.53;2.80;;;18.40;84.90;;;;;;5063407;28;20025;-66
2022/08/09 06:38:37;;;;;;;6.28;2.85;;;18.50;84.50;;;;;;5060617;28;20063;-65
2022/08/09 06:41:03;;;;;;;5.50;2.90;;;18.60;84.70;;;;;;5052102;28;20033;-66
2022/08/09 06:43:30;;;;;;;5.60;3.33;;;18.80;84.20;;;;;;5050950;28;20441;-66
2022/08/09 06:45:58;;;;;;;5.00;3.15;;;18.90;84.10;;;;;;5057440;28;20027;-66
2022/08/09 06:48:26;;;;;;;5.47;3.13;;;19.00;84.10;;;;;;5070512;28;20580;-66
2022/08/09 06:50:52;;;;;;;5.13;2.72;;;19.20;82.90;;;;;;5052118;28;20032;-66
2022/08/09 06:53:18;;;;;;;5.80;2.70;;;19.40;82.60;;;;;;5050617;28;20032;-67
2022/08/09 06:55:44;;;;;;;5.55;3.10;;;19.50;81.90;;;;;;5058354;28;20028;-65
2022/08/09 06:58:09;;;;;;;5.85;2.67;;;19.70;81.80;;;;;;5052391;28;20047;-66
2022/08/09 07:00:35;;;;;;;5.05;3.13;;;19.80;81.00;;;;;;5056699;28;20414;-66
2022/08/09 07:03:02;;;;;;;4.95;2.75;;;19.90;81.30;;;;;;5059535;28;20033;-66
2022/08/09 07:05:28;;;;;;;7.38;2.78;;;20.00;80.50;;;;;;5059394;28;20070;-67
2022/08/09 07:07:54;;;;;;;6.30;3.15;;;20.30;78.30;;;;;;5077972;28;20333;-66
2022/08/09 07:10:23;;;;;;;6.25;2.45;;;20.50;78.80;;;;;;5055611;28;20029;-66
2022/08/09 07:12:49;;;;;;;5.10;2.50;;;20.70;75.90;;;;;;5056741;28;20028;-66
2022/08/09 07:15:15;;;;;;;4.43;2.40;;;21.00;74.20;;;;;;5053769;28;20033;-66
2022/08/09 07:17:41;;;;;;;3.97;2.22;;;21.30;73.10;;;;;;5051925;28;20112;-66
2022/08/09 07:20:07;;;;;;;7.25;2.42;;;21.50;72.10;;;;;;5052260;28;21958;-66
2022/08/09 07:22:36;;;;;;;4.45;2.25;;;21.80;71.60;;;;;;5051834;28;20031;-66
2022/08/09 07:25:05;;;;;;;4.60;2.10;;;21.90;71.30;;;;;;5053678;28;20039;-66
2022/08/09 07:27:31;;;;;;;4.78;2.13;;;22.10;70.40;;;;;;5053227;28;20043;-66
2022/08/09 07:29:56;;;;;;;3.92;2.15;;;22.10;69.60;;;;;;5051984;28;20040;-66
2022/08/09 07:32:22;;;;;;;5.20;2.30;;;22.20;69.80;;;;;;5071402;28;20096;-66
2022/08/09 07:34:48;;;;;;;3.47;2.03;;;22.40;69.20;;;;;;5053794;28;20071;-66
2022/08/09 07:37:14;;;;;;;9.68;2.10;;;22.40;69.30;;;;;;5051578;28;20073;-66
2022/08/09 07:39:39;;;;;;;4.68;1.95;;;22.50;68.60;;;;;;5049767;28;20024;-66
2022/08/09 07:42:08;;;;;;;6.15;2.25;;;22.50;68.90;;;;;;5049893;28;21468;-66
2022/08/09 07:44:33;;;;;;;5.47;2.33;;;22.60;69.10;;;;;;5062827;28;20029;-67
2022/08/09 07:46:59;;;;;;;5.97;2.00;;;22.80;68.50;;;;;;5057486;28;20032;-65
2022/08/09 07:49:25;;;;;;;4.57;1.88;;;23.30;67.50;;;;;;5072755;28;20028;-66
2022/08/09 07:51:50;;;;;;;7.25;1.88;;;24.20;66.40;;;;;;5058150;28;20021;-66
2022/08/09 07:54:16;;;;;;;4.78;2.10;;;25.30;62.90;;;;;;5055812;28;20307;-66
2022/08/09 07:56:42;;;;;;;3.53;1.80;;;25.90;61.20;;;;;;5062951;28;20093;-66
2022/08/09 07:59:08;;;;;;;5.75;1.90;;;26.50;61.00;;;;;;5055469;28;20441;-66
2022/08/09 08:01:34;;;;;;;3.80;1.40;;;27.10;58.90;;;;;;5064575;28;20472;-66
2022/08/09 08:04:01;;;;;;;4.47;1.52;;;27.60;58.10;;;;;;5055165;28;20025;-66
2022/08/09 08:06:27;;;;;;;3.75;1.67;;;28.30;56.60;;;;;;5059438;28;20441;-67
2022/08/09 08:08:53;;;;;;;4.22;2.03;;;28.50;55.50;;;;;;5052231;28;20044;-66
2022/08/09 08:11:18;;;;;;;8.27;2.33;;;28.60;55.50;;;;;;5048804;28;20095;-65
2022/08/09 08:13:44;;;;;;;4.78;1.50;;;29.00;56.20;;;;;;5053965;28;20091;-65
2022/08/09 08:16:10;;;;;;;4.43;1.60;;;29.00;54.50;;;;;;5057554;28;20029;-65
2022/08/09 08:18:35;;;;;;;6.75;1.85;;;29.00;55.10;;;;;;5046851;28;20464;-65
2022/08/09 08:21:01;;;;;;;5.18;1.48;;;29.30;54.30;;;;;;5051669;28;20063;-65
2022/08/09 08:23:27;;;;;;;4.40;1.48;;;29.40;53.60;;;;;;5051593;28;20024;-67
2022/08/09 08:25:52;;;;;;;5.53;1.40;;;29.60;53.30;;;;;;5053580;28;20047;-66
2022/08/09 08:28:19;;;;;;;3.95;1.38;;;29.80;52.80;;;;;;5051220;28;20024;-66
2022/08/09 08:30:45;;;;;;;4.90;1.80;;;30.60;52.00;;;;;;5059744;28;20024;-65
2022/08/09 08:33:11;;;;;;;5.78;1.60;;;30.60;50.30;;;;;;5061346;28;20025;-66
2022/08/09 08:35:38;;;;;;;4.32;1.73;;;30.00;51.00;;;;;;5074919;28;20875;-66
2022/08/09 08:38:03;;;;;;;4.10;1.70;;;30.10;51.50;;;;;;5065008;28;20298;-66
2022/08/09 08:40:30;;;;;;;3.20;1.40;;;30.20;51.30;;;;;;5062439;28;20108;-66
2022/08/09 08:42:56;;;;;;;8.43;1.67;;;30.00;52.30;;;;;;5069209;28;20023;-67
2022/08/09 08:45:28;;;;;;;5.63;1.70;;;29.70;52.20;;;;;;5076083;28;20025;-67
2022/08/09 08:47:54;;;;;;;3.05;1.42;;;29.40;51.90;;;;;;5066678;28;20017;-66
2022/08/09 08:50:23;;;;;;;3.30;1.50;;;29.60;52.10;;;;;;5074260;28;20029;-66
2022/08/09 08:52:51;;;;;;;3.63;1.40;;;29.70;51.50;;;;;;5073972;28;20409;-66
2022/08/09 08:55:17;;;;;;;7.18;2.00;;;29.70;51.90;;;;;;5074004;28;20413;-66
2022/08/09 08:57:43;;;;;;;4.65;1.60;;;30.20;51.90;;;;;;5074729;28;20024;-67
2022/08/09 09:00:10;;;;;;;3.50;1.60;;;30.10;52.50;;;;;;5072706;28;20428;-66
2022/08/09 09:02:37;;;;;;;3.47;1.42;;;30.50;50.50;;;;;;5070757;28;20494;-66
2022/08/09 09:05:04;;;;;;;3.88;1.40;;;30.70;48.60;;;;;;5073956;28;20028;-66
2022/08/09 09:07:32;;;;;;;5.20;1.48;;;30.00;50.00;;;;;;5067781;28;20036;-66
2022/08/09 09:10:05;;;;;;;4.78;1.80;;;30.50;50.40;;;;;;5060079;28;20021;-66
2022/08/09 09:12:32;;;;;;;5.33;1.50;;;31.20;49.30;;;;;;5072936;28;20588;-66
2022/08/09 09:14:59;;;;;;;4.70;1.50;;;31.80;47.70;;;;;;5075113;28;20267;-66
2022/08/09 09:17:25;;;;;;;4.55;1.55;;;31.60;47.60;;;;;;5069791;28;20017;-66
2022/08/09 09:19:52;;;;;;;4.45;1.73;;;31.20;48.30;;;;;;5074329;28;20032;-66
2022/08/09 09:22:19;;;;;;;4.13;1.75;;;31.40;48.40;;;;;;5071425;28;20028;-67
2022/08/09 09:24:48;;;;;;;4.75;1.50;;;30.80;47.90;;;;;;5072943;28;20025;-66
2022/08/09 09:27:21;;;;;;;3.60;1.40;;;30.30;49.10;;;;;;5073763;28;20087;-66
2022/08/09 09:29:47;;;;;;;7.22;1.77;;;29.90;49.40;;;;;;5075840;28;20317;-66
2022/08/09 09:32:25;;;;;;;5.30;1.60;;;29.70;49.50;;;;;;5064291;28;20043;-65
2022/08/09 09:35:10;;;;;;;4.22;1.55;;;29.60;49.50;;;;;;5073972;28;20024;-66
2022/08/09 09:37:37;;;;;;;4.50;1.73;;;29.90;49.60;;;;;;5075072;28;20060;-67
2022/08/09 09:40:04;;;;;;;5.15;1.40;;;30.30;50.10;;;;;;5065585;28;20326;-67
2022/08/09 09:42:30;;;;;;;6.95;1.70;;;31.00;49.10;;;;;;5067114;28;20030;-67
2022/08/09 09:45:06;;;;;;;4.88;1.50;;;31.00;47.80;;;;;;5073671;28;20029;-66
2022/08/09 09:47:32;;;;;;;5.82;1.92;;;31.20;47.50;;;;;;5072410;28;20160;-66
2022/08/09 09:49:59;;;;;;;4.68;1.50;;;31.10;48.00;;;;;;5072127;28;20031;-66
2022/08/09 09:52:28;;;;;;;6.38;1.50;;;31.10;48.20;;;;;;5068959;28;20025;-67
2022/08/09 09:55:07;;;;;;;3.72;1.33;;;30.60;48.80;;;;;;5070477;28;20405;-66
2022/08/09 09:57:33;;;;;;;5.13;1.40;;;31.50;48.40;;;;;;5073118;28;20033;-66
2022/08/09 10:00:02;;;;;;;4.35;1.40;;;31.90;47.90;;;;;;5074370;28;20025;-67
2022/08/09 10:02:28;;;;;;;4.35;1.55;;;32.00;47.00;;;;;;5077130;28;20031;-66
2022/08/09 10:05:06;;;;;;;5.55;1.50;;;31.30;48.40;;;;;;5077157;28;20093;-66
2022/08/09 10:07:33;;;;;;;4.32;1.45;;;31.50;47.10;;;;;;5069832;28;20046;-67
2022/08/09 10:10:00;;;;;;;3.25;1.30;;;31.60;47.40;;;;;;5068889;28;20048;-66
2022/08/09 10:12:31;;;;;;;4.97;1.50;;;31.50;47.60;;;;;;5079543;28;20075;-67
2022/08/09 10:15:14;;;;;;;4.90;1.70;;;31.50;46.60;;;;;;5076768;28;20044;-66
2022/08/09 10:17:45;;;;;;;6.82;1.67;;;31.10;47.10;;;;;;5064620;28;20032;-67
2022/08/09 10:20:18;;;;;;;6.15;1.65;;;30.80;48.50;;;;;;5071628;28;20028;-66
2022/08/09 10:22:43;;;;;;;5.22;1.50;;;31.10;48.90;;;;;;5075804;28;20375;-67
2022/08/09 10:25:10;;;;;;;4.82;1.42;;;31.90;48.40;;;;;;5071444;28;20039;-66
2022/08/09 10:27:36;;;;;;;4.43;1.70;;;31.50;47.30;;;;;;5075937;28;20012;-66
2022/08/09 10:30:04;;;;;;;3.75;1.60;;;31.20;47.30;;;;;;5072846;28;20095;-66
2022/08/09 10:32:30;;;;;;;4.82;1.50;;;31.40;47.10;;;;;;5070356;28;20047;-66
2022/08/09 10:34:56;;;;;;;3.08;1.60;;;31.90;47.10;;;;;;5073449;28;20031;-67
2022/08/09 10:37:22;;;;;;;7.20;1.45;;;31.90;47.30;;;;;;5076041;28;20337;-67
2022/08/09 10:39:49;;;;;;;3.92;1.48;;;32.10;46.50;;;;;;5071080;28;20071;-66
2022/08/09 10:42:17;;;;;;;4.00;1.52;;;32.30;47.50;;;;;;5073890;28;20486;-66
2022/08/09 10:44:46;;;;;;;4.25;1.50;;;32.40;46.60;;;;;;5073075;28;20044;-65
2022/08/09 10:47:33;;;;;;;3.25;1.52;;;32.50;46.30;;;;;;5073128;28;20029;-66
2022/08/09 10:50:16;;;;;;;4.45;1.50;;;32.40;45.50;;;;;;5072576;28;20025;-66
2022/08/09 10:53:06;;;;;;;6.30;1.70;;;32.40;45.40;;;;;;5074455;28;20023;-66
2022/08/09 10:55:35;;;;;;;4.10;1.52;;;31.60;45.70;;;;;;5067415;28;20029;-66
2022/08/09 10:58:04;;;;;;;4.05;1.48;;;31.10;46.40;;;;;;5064144;28;20374;-66
2022/08/09 11:00:42;;;;;;;3.05;1.42;;;31.50;47.10;;;;;;5075237;28;20032;-67
2022/08/09 11:03:22;;;;;;;6.03;1.77;;;31.90;46.30;;;;;;5073208;28;20033;-66
2022/08/09 11:06:17;;;;;;;5.00;1.35;;;32.10;46.30;;;;;;5067801;28;20333;-66
2022/08/09 11:08:45;;;;;;;6.82;1.55;;;32.10;46.50;;;;;;5075951;28;20033;-65
2022/08/09 11:11:11;;;;;;;2.78;1.33;;;32.10;45.30;;;;;;5069737;28;20032;-65
2022/08/09 11:13:40;;;;;;;3.83;1.45;;;32.20;46.50;;;;;;5074121;28;20383;-65
2022/08/09 11:16:35;;;;;;;5.63;1.45;;;32.20;45.40;;;;;;5070807;28;20094;-65
2022/08/09 11:19:07;;;;;;;3.42;1.30;;;31.90;45.60;;;;;;5076113;28;21791;-67
2022/08/09 11:21:52;;;;;;;2.78;1.40;;;32.20;45.70;;;;;;5076260;28;20054;-66
2022/08/09 11:24:18;;;;;;;5.03;1.40;;;32.30;45.40;;;;;;5075738;28;20502;-66
2022/08/09 11:26:47;;;;;;;3.05;1.40;;;32.10;45.60;;;;;;5061263;28;20036;-66
2022/08/09 11:29:50;;;;;;;3.83;1.48;;;32.30;44.40;;;;;;5074569;28;20039;-66
2022/08/09 11:33:00;;;;;;;5.45;1.40;;;31.70;44.00;;;;;;5070135;28;20096;-67
2022/08/09 11:35:44;;;;;;;3.50;1.33;;;31.50;44.70;;;;;;5028200;28;20025;-65
2022/08/09 11:38:25;;;;;;;5.22;1.40;;;31.80;45.50;;;;;;5033182;28;20354;-65
2022/08/09 11:40:52;;;;;;;6.65;2.03;;;31.70;43.70;;;;;;5057659;28;20044;-66
2022/08/09 11:43:27;;;;;;;6.15;1.70;;;31.80;45.50;;;;;;5074280;28;20020;-66
2022/08/09 11:46:04;;;;;;;6.13;1.50;;;31.80;45.80;;;;;;5074494;28;20039;-65
2022/08/09 11:48:51;;;;;;;4.53;1.50;;;31.60;46.00;;;;;;5071403;28;20481;-66
2022/08/09 11:51:20;;;;;;;4.35;1.50;;;31.20;47.30;;;;;;5072602;28;20028;-66
2022/08/09 11:53:46;;;;;;;3.42;1.50;;;31.20;46.10;;;;;;5067598;28;20491;-67
2022/08/09 11:56:15;;;;;;;5.45;1.63;;;31.20;46.40;;;;;;5065860;28;20041;-66
2022/08/09 11:58:45;;;;;;;4.95;1.67;;;31.20;47.10;;;;;;5071621;28;20032;-67
2022/08/09 12:01:15;;;;;;;4.68;1.40;;;31.10;46.30;;;;;;5075288;28;20070;-67
2022/08/09 12:03:45;;;;;;;3.28;1.30;;;31.30;46.70;;;;;;5068814;28;20021;-66
2022/08/09 12:06:20;;;;;;;5.45;1.40;;;31.30;46.00;;;;;;5073775;28;20131;-66
2022/08/09 12:08:52;;;;;;;3.67;1.48;;;31.00;45.60;;;;;;5070929;28;20056;-65
2022/08/09 12:11:21;;;;;;;4.30;1.70;;;30.80;45.40;;;;;;5069460;28;20021;-66
2022/08/09 12:13:53;;;;;;;4.47;1.40;;;30.80;46.10;;;;;;5066974;28;20021;-66
2022/08/09 12:16:34;;;;;;;5.05;1.50;;;31.00;47.40;;;;;;5073458;28;20040;-66
2022/08/09 12:19:01;;;;;;;3.53;1.30;;;31.60;46.00;;;;;;5060551;28;20154;-66
2022/08/09 12:21:47;;;;;;;2.47;1.20;;;31.70;45.60;;;;;;5069157;28;20431;-66
2022/08/09 12:24:22;;;;;;;4.72;1.38;;;31.90;46.00;;;;;;5072431;28;20062;-65
2022/08/09 12:26:49;;;;;;;3.83;1.52;;;31.70;46.80;;;;;;5071646;28;20080;-66
2022/08/09 12:29:24;;;;;;;4.55;1.45;;;31.70;46.40;;;;;;5065375;28;20475;-65
2022/08/09 12:32:01;;;;;;;7.40;1.52;;;31.70;47.00;;;;;;5067010;28;20020;-66
2022/08/09 12:34:34;;;;;;;4.35;1.60;;;31.50;46.70;;;;;;5064126;28;20056;-66
2022/08/09 12:37:01;;;;;;;5.95;1.60;;;31.70;46.50;;;;;;5056335;28;20108;-66
2022/08/09 12:39:30;;;;;;;4.47;1.60;;;31.80;47.90;;;;;;5069355;28;20066;-65
2022/08/09 12:42:15;;;;;;;4.93;1.50;;;31.60;46.40;;;;;;5069350;28;20033;-65
2022/08/09 12:44:42;;;;;;;3.90;1.70;;;31.70;48.40;;;;;;5054768;28;20036;-66
2022/08/09 12:47:09;;;;;;;3.33;1.67;;;31.60;46.00;;;;;;5061828;28;20434;-66
2022/08/09 12:49:35;;;;;;;5.97;1.60;;;31.50;47.60;;;;;;5066996;28;20063;-66
2022/08/09 12:52:02;;;;;;;5.88;1.40;;;31.50;47.90;;;;;;5073688;28;20035;-65
2022/08/09 12:54:28;;;;;;;4.15;1.58;;;31.60;46.20;;;;;;5071724;28;20032;-65
2022/08/09 12:56:54;;;;;;;4.32;1.50;;;31.90;46.10;;;;;;5074749;28;20017;-65
2022/08/09 12:59:22;;;;;;;4.25;1.40;;;32.10;45.70;;;;;;5073164;28;20062;-66